Time;durP1;ratioP1;P1;durP2;ratioP2;P2;SDS_P1;SDS_P2;PMS_P1;PMS_P2;Temp;Humidity;BMP_temperature;BMP_pressure;BME280_temperature;BME280_humidity;BME280_pressure;Samples;Min_cycle;Max_cycle;Signal;HPM_P1;HPM_P2
2022/05/08 00:00:56;;;;;;;;;;;;;;;17.81;64.75;98726.97;2099741;28;19935;-53
2022/05/08 00:01:58;;;;;;;;;;;;;;;17.80;64.41;98734.22;2096900;28;19932;-53
2022/05/08 00:02:58;;;;;;;;;;;;;;;17.80;64.48;98726.16;2097590;28;19978;-53
2022/05/08 00:04:00;;;;;;;;;;;;;;;17.81;64.33;98721.63;2095440;28;19939;-49
2022/05/08 00:05:00;;;;;;;;;;;;;;;17.81;64.55;98718.94;2100186;28;19935;-52
2022/05/08 00:06:07;;;;;;;;;;;;;;;17.79;64.52;98723.66;2098305;28;20541;-51
2022/05/08 00:07:07;;;;;;;;;;;;;;;17.78;64.62;98722.84;2095860;28;20059;-52
2022/05/08 00:08:09;;;;;;;;;;;;;;;17.80;64.42;98725.31;2098884;28;20539;-51
2022/05/08 00:09:09;;;;;;;;;;;;;;;17.79;64.62;98729.03;2098452;28;20015;-47
2022/05/08 00:10:11;;;;;;;;;;;;;;;17.78;64.67;98725.50;2094741;28;19951;-49
2022/05/08 00:11:12;;;;;;;;;;;;;;;17.80;64.59;98722.63;2095515;28;19927;-49
2022/05/08 00:12:14;;;;;;;;;;;;;;;17.79;64.47;98723.66;2098955;28;20813;-50
2022/05/08 00:13:14;;;;;;;;;;;;;;;17.78;64.55;98717.47;2098767;28;20369;-55
2022/05/08 00:14:16;;;;;;;;;;;;;;;17.79;64.58;98718.28;2098143;28;19928;-52
2022/05/08 00:15:16;;;;;;;;;;;;;;;17.78;64.43;98713.94;2097419;28;19951;-53
2022/05/08 00:16:19;;;;;;;;;;;;;;;17.78;64.36;98720.16;2098209;28;20627;-52
2022/05/08 00:17:20;;;;;;;;;;;;;;;17.78;64.54;98720.16;2095243;28;19973;-50
2022/05/08 00:18:23;;;;;;;;;;;;;;;17.78;64.49;98717.47;2100754;28;19946;-47
2022/05/08 00:19:23;;;;;;;;;;;;;;;17.77;64.35;98721.13;2097041;28;20437;-55
2022/05/08 00:20:25;;;;;;;;;;;;;;;17.77;64.46;98720.31;2096482;28;19939;-52
2022/05/08 00:21:25;;;;;;;;;;;;;;;17.76;64.40;98714.13;2099587;28;19932;-51
2022/05/08 00:22:27;;;;;;;;;;;;;;;17.76;64.48;98714.13;2099887;28;19966;-49
2022/05/08 00:23:27;;;;;;;;;;;;;;;17.73;64.63;98714.50;2096903;28;19988;-54
2022/05/08 00:24:29;;;;;;;;;;;;;;;17.74;64.59;98712.66;2097089;28;19931;-53
2022/05/08 00:25:29;;;;;;;;;;;;;;;17.74;64.47;98710.78;2100626;28;19938;-50
2022/05/08 00:26:31;;;;;;;;;;;;;;;17.77;64.47;98722.97;2098650;28;19932;-54
2022/05/08 00:27:32;;;;;;;;;;;;;;;17.75;64.56;98717.84;2095201;28;19977;-48
2022/05/08 00:28:33;;;;;;;;;;;;;;;17.75;64.60;98717.00;2100507;28;20519;-53
2022/05/08 00:29:34;;;;;;;;;;;;;;;17.77;64.58;98714.94;2097473;28;20512;-50
2022/05/08 00:30:36;;;;;;;;;;;;;;;17.76;64.46;98718.66;2093488;28;19928;-54
2022/05/08 00:31:38;;;;;;;;;;;;;;;17.74;64.52;98721.53;2092882;28;19928;-52
2022/05/08 00:32:40;;;;;;;;;;;;;;;17.74;64.74;98720.69;2096206;28;19988;-52
2022/05/08 00:33:41;;;;;;;;;;;;;;;17.74;64.42;98723.38;2099198;28;19924;-52
2022/05/08 00:34:42;;;;;;;;;;;;;;;17.74;64.45;98724.19;2098646;28;19928;-49
2022/05/08 00:35:43;;;;;;;;;;;;;;;17.77;64.42;98720.31;2096525;28;19932;-52
2022/05/08 00:36:45;;;;;;;;;;;;;;;17.74;64.33;98720.69;2099660;28;19928;-49
2022/05/08 00:37:45;;;;;;;;;;;;;;;17.74;64.39;98720.69;2097047;28;19932;-49
2022/05/08 00:38:47;;;;;;;;;;;;;;;17.76;64.38;98724.03;2098056;28;19931;-48
2022/05/08 00:39:48;;;;;;;;;;;;;;;17.74;64.59;98721.53;2097587;28;19928;-52
2022/05/08 00:40:49;;;;;;;;;;;;;;;17.74;64.52;98720.69;2095724;28;19935;-47
2022/05/08 00:41:50;;;;;;;;;;;;;;;17.75;64.50;98714.31;2096111;28;19932;-49
2022/05/08 00:42:51;;;;;;;;;;;;;;;17.74;64.46;98718.00;2098957;28;20787;-46
2022/05/08 00:43:53;;;;;;;;;;;;;;;17.74;64.31;98718.84;2098264;28;19935;-50
2022/05/08 00:44:53;;;;;;;;;;;;;;;17.75;64.48;98715.16;2099648;28;19932;-47
2022/05/08 00:45:55;;;;;;;;;;;;;;;17.74;64.40;98718.00;2098121;28;19936;-54
2022/05/08 00:46:58;;;;;;;;;;;;;;;17.72;64.42;98707.50;2094356;28;19928;-50
2022/05/08 00:48:01;;;;;;;;;;;;;;;17.75;64.45;98717.00;2096755;28;20003;-49
2022/05/08 00:49:03;;;;;;;;;;;;;;;17.75;64.45;98717.00;2094927;28;19977;-50
2022/05/08 00:50:04;;;;;;;;;;;;;;;17.75;64.54;98708.97;2096409;28;20488;-51
2022/05/08 00:51:06;;;;;;;;;;;;;;;17.75;64.33;98708.97;2098346;28;19967;-52
2022/05/08 00:52:07;;;;;;;;;;;;;;;17.76;64.31;98718.66;2092894;28;19928;-50
2022/05/08 00:53:09;;;;;;;;;;;;;;;17.73;64.32;98706.47;2093933;28;20593;-51
2022/05/08 00:54:10;;;;;;;;;;;;;;;17.74;64.33;98709.97;2096225;28;20511;-52
2022/05/08 00:55:12;;;;;;;;;;;;;;;17.74;64.37;98705.44;2098629;28;19931;-51
2022/05/08 00:56:14;;;;;;;;;;;;;;;17.74;64.51;98704.59;2099524;28;19932;-49
2022/05/08 00:57:15;;;;;;;;;;;;;;;17.74;64.34;98704.59;2098090;28;20651;-49
2022/05/08 00:58:17;;;;;;;;;;;;;;;17.74;64.60;98704.59;2097680;28;19924;-48
2022/05/08 00:59:19;;;;;;;;;;;;;;;17.74;64.39;98707.28;2100584;28;20019;-52
2022/05/08 01:00:20;;;;;;;;;;;;;;;17.73;64.53;98700.28;2099430;28;19928;-49
2022/05/08 01:01:21;;;;;;;;;;;;;;;17.72;64.50;98698.59;2094992;28;20577;-54
2022/05/08 01:02:24;;;;;;;;;;;;;;;17.74;64.49;98704.59;2096641;28;19932;-49
2022/05/08 01:03:24;;;;;;;;;;;;;;;17.72;64.30;98702.13;2099522;28;19924;-49
2022/05/08 01:04:26;;;;;;;;;;;;;;;17.72;64.42;98698.59;2099637;28;19938;-50
2022/05/08 01:05:26;;;;;;;;;;;;;;;17.71;64.45;98705.00;2096946;28;19972;-52
2022/05/08 01:06:29;;;;;;;;;;;;;;;17.71;64.50;98697.78;2098025;28;19965;-50
2022/05/08 01:07:31;;;;;;;;;;;;;;;17.71;64.31;98703.13;2097831;28;19928;-52
2022/05/08 01:08:33;;;;;;;;;;;;;;;17.71;64.49;98699.63;2096590;28;19938;-48
2022/05/08 01:09:34;;;;;;;;;;;;;;;17.70;64.49;98701.50;2099224;28;20309;-51
2022/05/08 01:10:36;;;;;;;;;;;;;;;17.68;64.27;98697.34;2098382;28;19928;-53
2022/05/08 01:11:38;;;;;;;;;;;;;;;17.71;64.35;98699.63;2098215;28;20527;-53
2022/05/08 01:12:44;;;;;;;;;;;;;;;17.70;64.53;98697.97;2098402;28;19983;-49
2022/05/08 01:13:46;;;;;;;;;;;;;;;17.71;64.51;98695.09;2101142;28;20452;-46
2022/05/08 01:14:46;;;;;;;;;;;;;;;17.72;64.35;98698.59;2094415;28;20320;-49
2022/05/08 01:15:48;;;;;;;;;;;;;;;17.73;64.34;98697.59;2098965;28;19928;-55
2022/05/08 01:16:49;;;;;;;;;;;;;;;17.72;64.41;98695.91;2092166;28;19928;-53
2022/05/08 01:17:53;;;;;;;;;;;;;;;17.71;64.47;98694.25;2097770;28;19928;-50
2022/05/08 01:18:53;;;;;;;;;;;;;;;17.71;64.34;98696.94;2097674;28;19928;-55
2022/05/08 01:19:55;;;;;;;;;;;;;;;17.71;64.30;98697.78;2098776;28;19989;-50
2022/05/08 01:20:55;;;;;;;;;;;;;;;17.71;64.37;98691.59;2099360;28;19935;-52
2022/05/08 01:21:58;;;;;;;;;;;;;;;17.71;64.43;98699.63;2098151;28;19939;-49
2022/05/08 01:23:00;;;;;;;;;;;;;;;17.69;64.43;98702.53;2099878;28;19928;-50
2022/05/08 01:24:02;;;;;;;;;;;;;;;17.72;64.34;98695.91;2098405;28;19935;-53
2022/05/08 01:25:03;;;;;;;;;;;;;;;17.69;64.30;98701.66;2091274;28;20285;-52
2022/05/08 01:26:04;;;;;;;;;;;;;;;17.69;64.27;98699.84;2095068;28;19999;-51
2022/05/08 01:27:05;;;;;;;;;;;;;;;17.70;64.33;98701.50;2096605;28;19931;-51
2022/05/08 01:28:07;;;;;;;;;;;;;;;17.70;64.36;98704.16;2096871;28;20580;-52
2022/05/08 01:29:07;;;;;;;;;;;;;;;17.69;64.51;98705.22;2100551;28;20019;-49
2022/05/08 01:30:09;;;;;;;;;;;;;;;17.68;64.44;98706.22;2100958;28;19924;-52
2022/05/08 01:31:10;;;;;;;;;;;;;;;17.68;64.52;98708.06;2091968;28;19961;-54
2022/05/08 01:32:11;;;;;;;;;;;;;;;17.69;64.33;98701.66;2097993;28;19962;-53
2022/05/08 01:33:12;;;;;;;;;;;;;;;17.68;64.44;98706.22;2100175;28;19924;-51
2022/05/08 01:34:14;;;;;;;;;;;;;;;17.68;64.31;98700.03;2097636;28;19935;-53
2022/05/08 01:35:14;;;;;;;;;;;;;;;17.70;64.46;98700.66;2095887;28;19932;-53
2022/05/08 01:36:16;;;;;;;;;;;;;;;17.70;64.17;98703.34;2098439;28;19932;-52
2022/05/08 01:37:18;;;;;;;;;;;;;;;17.69;64.29;98701.66;2101385;28;20018;-52
2022/05/08 01:38:20;;;;;;;;;;;;;;;17.69;64.35;98704.34;2099531;28;19924;-47
2022/05/08 01:39:21;;;;;;;;;;;;;;;17.69;64.36;98702.53;2096570;28;19924;-54
2022/05/08 01:40:22;;;;;;;;;;;;;;;17.70;64.51;98703.34;2098462;28;19931;-48
2022/05/08 01:41:23;;;;;;;;;;;;;;;17.71;64.35;98700.44;2098426;28;19928;-54
2022/05/08 01:42:27;;;;;;;;;;;;;;;17.70;64.47;98697.97;2101202;28;20290;-51
2022/05/08 01:43:31;;;;;;;;;;;;;;;17.69;64.45;98702.53;2099959;28;20007;-49
2022/05/08 01:44:33;;;;;;;;;;;;;;;17.69;64.36;98702.53;2101576;28;19928;-51
2022/05/08 01:45:33;;;;;;;;;;;;;;;17.70;64.29;98704.16;2097087;28;20294;-52
2022/05/08 01:46:35;;;;;;;;;;;;;;;17.69;64.29;98702.53;2098259;28;19928;-53
2022/05/08 01:48:54;;;;;;;;;;;;;;;17.66;64.32;98700.22;2099829;28;19931;-52
2022/05/08 01:49:55;;;;;;;;;;;;;;;17.65;64.31;98695.88;2100099;28;20877;-49
2022/05/08 01:50:57;;;;;;;;;;;;;;;17.67;64.30;98693.00;2100870;28;19928;-49
2022/05/08 01:51:58;;;;;;;;;;;;;;;17.68;64.26;98705.38;2099631;28;20330;-52
2022/05/08 01:53:01;;;;;;;;;;;;;;;17.68;64.43;98703.53;2101503;28;19928;-50
2022/05/08 01:54:05;;;;;;;;;;;;;;;17.68;64.70;98697.34;2098089;28;20553;-52
2022/05/08 01:55:06;;;;;;;;;;;;;;;17.68;64.46;98703.53;2098427;28;20385;-49
2022/05/08 01:56:08;;;;;;;;;;;;;;;17.65;64.42;98699.38;2098032;28;19977;-51
2022/05/08 01:57:08;;;;;;;;;;;;;;;17.64;64.34;98695.06;2098010;28;19928;-47
2022/05/08 01:58:10;;;;;;;;;;;;;;;17.65;64.47;98694.03;2100288;28;19924;-51
2022/05/08 01:59:11;;;;;;;;;;;;;;;17.65;64.25;98696.69;2098875;28;20513;-53
2022/05/08 02:00:13;;;;;;;;;;;;;;;17.67;64.50;98698.38;2097717;28;19932;-49
2022/05/08 02:01:15;;;;;;;;;;;;;;;17.68;64.43;98700.84;2100836;28;19935;-49
2022/05/08 02:02:16;;;;;;;;;;;;;;;17.66;64.46;98692.16;2102437;28;19931;-51
2022/05/08 02:03:19;;;;;;;;;;;;;;;17.64;64.56;98696.91;2099510;28;19925;-47
2022/05/08 02:04:19;;;;;;;;;;;;;;;17.64;64.29;98695.06;2088678;28;19924;-49
2022/05/08 02:05:21;;;;;;;;;;;;;;;17.65;64.44;98695.88;2099289;28;19932;-49
2022/05/08 02:06:23;;;;;;;;;;;;;;;17.65;64.18;98690.50;2099708;28;19928;-50
2022/05/08 02:07:23;;;;;;;;;;;;;;;17.67;64.31;98693.00;2101820;28;19928;-47
2022/05/08 02:08:26;;;;;;;;;;;;;;;17.67;64.15;98682.28;2099708;28;20704;-50
2022/05/08 02:09:27;;;;;;;;;;;;;;;17.69;64.27;98690.94;2098554;28;19932;-52
2022/05/08 02:10:29;;;;;;;;;;;;;;;17.67;64.26;98682.28;2101171;28;19924;-46
2022/05/08 02:11:29;;;;;;;;;;;;;;;17.64;64.35;98689.69;2099593;28;19932;-52
2022/05/08 02:12:31;;;;;;;;;;;;;;;17.64;64.35;98694.22;2099199;28;20398;-52
2022/05/08 02:13:32;;;;;;;;;;;;;;;17.64;64.38;98694.22;2100749;28;20421;-51
2022/05/08 02:14:33;;;;;;;;;;;;;;;17.65;64.41;98693.19;2099818;28;19957;-55
2022/05/08 02:15:34;;;;;;;;;;;;;;;17.64;64.24;98687.00;2095167;28;19932;-53
2022/05/08 02:16:35;;;;;;;;;;;;;;;17.63;64.38;98693.41;2099030;28;19935;-55
2022/05/08 02:17:37;;;;;;;;;;;;;;;17.65;64.13;98694.03;2100724;28;20043;-50
2022/05/08 02:18:38;;;;;;;;;;;;;;;17.63;64.14;98688.03;2101554;28;19931;-54
2022/05/08 02:19:39;;;;;;;;;;;;;;;17.64;64.35;98689.69;2101582;28;20599;-50
2022/05/08 02:20:40;;;;;;;;;;;;;;;17.64;64.25;98692.38;2100635;28;19978;-51
2022/05/08 02:21:41;;;;;;;;;;;;;;;17.64;64.24;98695.06;2096294;28;20020;-54
2022/05/08 02:22:42;;;;;;;;;;;;;;;17.64;64.33;98696.91;2097708;28;19947;-53
2022/05/08 02:23:44;;;;;;;;;;;;;;;17.64;64.25;98695.06;2098883;28;19935;-47
2022/05/08 02:24:46;;;;;;;;;;;;;;;17.63;64.41;98689.88;2098163;28;19939;-48
2022/05/08 02:25:47;;;;;;;;;;;;;;;17.63;64.40;98692.56;2101865;28;20331;-46
2022/05/08 02:26:48;;;;;;;;;;;;;;;17.63;64.44;98703.28;2101788;28;20378;-53
2022/05/08 02:27:51;;;;;;;;;;;;;;;17.62;64.25;98691.72;2098296;28;19928;-54
2022/05/08 02:28:52;;;;;;;;;;;;;;;17.64;64.43;98694.22;2101187;28;19924;-54
2022/05/08 02:29:53;;;;;;;;;;;;;;;17.64;64.16;98699.59;2099732;28;19927;-50
2022/05/08 02:30:54;;;;;;;;;;;;;;;17.64;64.16;98700.41;2092180;28;19939;-54
2022/05/08 02:31:55;;;;;;;;;;;;;;;17.63;64.13;98703.28;2099555;28;19928;-47
2022/05/08 02:32:57;;;;;;;;;;;;;;;17.61;64.28;98700.00;2100824;28;19935;-53
2022/05/08 02:33:59;;;;;;;;;;;;;;;17.65;64.33;98703.94;2099821;28;19928;-53
2022/05/08 02:34:59;;;;;;;;;;;;;;;17.61;64.16;98698.13;2098067;28;19938;-55
2022/05/08 02:36:01;;;;;;;;;;;;;;;17.63;64.22;98692.56;2100395;28;20003;-48
2022/05/08 02:37:02;;;;;;;;;;;;;;;17.62;64.29;98696.28;2100369;28;20056;-49
2022/05/08 02:38:03;;;;;;;;;;;;;;;17.61;64.09;98698.13;2095196;28;20591;-48
2022/05/08 02:39:05;;;;;;;;;;;;;;;17.62;64.10;98697.09;2100332;28;19936;-52
2022/05/08 02:40:08;;;;;;;;;;;;;;;17.64;64.16;98695.06;2099140;28;19936;-53
2022/05/08 02:41:09;;;;;;;;;;;;;;;17.63;64.05;98698.78;2097200;28;20340;-52
2022/05/08 02:42:12;;;;;;;;;;;;;;;17.65;64.14;98704.75;2101043;28;19954;-49
2022/05/08 02:43:14;;;;;;;;;;;;;;;17.61;64.28;98700.81;2099945;28;19924;-47
2022/05/08 02:44:16;;;;;;;;;;;;;;;17.61;64.15;98700.81;2098866;28;20749;-53
2022/05/08 02:45:18;;;;;;;;;;;;;;;17.61;64.38;98700.81;2095842;28;19928;-46
2022/05/08 02:46:19;;;;;;;;;;;;;;;17.62;64.27;98702.47;2098304;28;19924;-51
2022/05/08 02:47:20;;;;;;;;;;;;;;;17.61;64.12;98706.19;2100916;28;19930;-55
2022/05/08 02:48:21;;;;;;;;;;;;;;;17.63;64.06;98705.97;2098495;28;20755;-50
2022/05/08 02:49:22;;;;;;;;;;;;;;;17.61;64.33;98705.34;2096966;28;19931;-55
2022/05/08 02:50:23;;;;;;;;;;;;;;;17.63;64.25;98706.81;2099613;28;19940;-53
2022/05/08 02:51:24;;;;;;;;;;;;;;;17.63;64.14;98708.66;2101286;28;20049;-52
2022/05/08 02:52:25;;;;;;;;;;;;;;;17.61;64.11;98706.19;2100873;28;19978;-51
2022/05/08 02:53:26;;;;;;;;;;;;;;;17.61;64.19;98702.66;2096741;28;20460;-52
2022/05/08 02:54:28;;;;;;;;;;;;;;;17.60;64.20;98709.03;2100036;28;19928;-50
2022/05/08 02:59:26;;;;;;;;;;;;;;;17.61;64.12;98705.34;2098186;28;27096;-51
2022/05/08 03:00:27;;;;;;;;;;;;;;;17.61;64.04;98700.00;2097905;28;20446;-51
2022/05/08 03:01:28;;;;;;;;;;;;;;;17.59;64.30;98699.34;2099640;28;19932;-50
2022/05/08 03:02:29;;;;;;;;;;;;;;;17.60;64.20;98699.13;2089510;28;19950;-49
2022/05/08 03:03:31;;;;;;;;;;;;;;;17.59;64.29;98697.50;2098309;28;19978;-47
2022/05/08 03:04:31;;;;;;;;;;;;;;;17.59;64.28;98699.34;2101544;28;19932;-52
2022/05/08 03:05:33;;;;;;;;;;;;;;;17.59;64.14;98697.50;2102633;28;20439;-54
2022/05/08 03:06:34;;;;;;;;;;;;;;;17.59;64.29;98693.97;2100259;28;19944;-54
2022/05/08 03:07:35;;;;;;;;;;;;;;;17.57;64.32;98699.53;2100002;28;19935;-52
2022/05/08 03:08:36;;;;;;;;;;;;;;;17.58;64.27;98701.22;2096916;28;19939;-53
2022/05/08 03:09:39;;;;;;;;;;;;;;;17.58;64.30;98700.38;2098901;28;19928;-55
2022/05/08 03:12:05;;;;;;;;;;;;;;;17.60;64.09;98701.00;2089739;28;20318;-48
2022/05/08 03:13:05;;;;;;;;;;;;;;;17.59;64.20;98702.84;2099792;28;19924;-49
2022/05/08 03:14:07;;;;;;;;;;;;;;;17.57;64.34;98704.91;2100696;28;20373;-49
2022/05/08 03:15:08;;;;;;;;;;;;;;;17.57;64.14;98704.06;2095948;28;19936;-48
2022/05/08 03:16:10;;;;;;;;;;;;;;;17.58;64.26;98700.38;2099254;28;19924;-51
2022/05/08 03:17:11;;;;;;;;;;;;;;;17.59;63.97;98702.03;2096802;28;21019;-54
2022/05/08 03:18:12;;;;;;;;;;;;;;;17.58;64.08;98695.84;2099940;28;19931;-51
2022/05/08 03:19:14;;;;;;;;;;;;;;;17.57;64.25;98699.53;2100278;28;19961;-48
2022/05/08 03:20:14;;;;;;;;;;;;;;;17.56;64.21;98697.88;2097321;28;20389;-49
2022/05/08 03:21:16;;;;;;;;;;;;;;;17.57;64.32;98702.22;2096960;28;19934;-51
2022/05/08 03:22:17;;;;;;;;;;;;;;;17.56;64.18;98700.56;2101135;28;20409;-51
2022/05/08 03:23:18;;;;;;;;;;;;;;;17.56;64.34;98700.56;2101555;28;19924;-51
2022/05/08 03:24:19;;;;;;;;;;;;;;;17.56;64.38;98703.25;2099107;28;19931;-50
2022/05/08 03:25:22;;;;;;;;;;;;;;;17.53;64.30;98698.28;2099115;28;19942;-49
2022/05/08 03:26:24;;;;;;;;;;;;;;;17.55;64.33;98708.78;2100461;28;19932;-52
2022/05/08 03:27:26;;;;;;;;;;;;;;;17.55;64.36;98706.97;2100918;28;21166;-51
2022/05/08 03:28:27;;;;;;;;;;;;;;;17.56;64.35;98710.47;2100310;28;19935;-49
2022/05/08 03:29:28;;;;;;;;;;;;;;;17.56;64.21;98711.28;2097412;28;19939;-47
2022/05/08 03:30:29;;;;;;;;;;;;;;;17.56;64.18;98708.59;2097488;28;20351;-49
2022/05/08 03:31:30;;;;;;;;;;;;;;;17.54;64.26;98705.28;2100395;28;19924;-47
2022/05/08 03:32:31;;;;;;;;;;;;;;;17.55;64.11;98712.31;2102362;28;19936;-49
2022/05/08 03:33:33;;;;;;;;;;;;;;;17.57;64.26;98710.25;2096194;28;19928;-47
2022/05/08 03:34:34;;;;;;;;;;;;;;;17.57;64.17;98712.94;2100712;28;20398;-48
2022/05/08 03:35:35;;;;;;;;;;;;;;;17.56;64.32;98713.16;2099520;28;20461;-49
2022/05/08 03:36:37;;;;;;;;;;;;;;;17.57;64.15;98714.78;2097328;28;20010;-48
2022/05/08 03:37:37;;;;;;;;;;;;;;;17.56;64.11;98708.59;2099234;28;19932;-49
2022/05/08 03:38:43;;;;;;;;;;;;;;;17.56;64.17;98716.66;2098496;28;20727;-49
2022/05/08 03:39:43;;;;;;;;;;;;;;;17.55;64.33;98712.31;2098659;28;20447;-48
2022/05/08 03:40:46;;;;;;;;;;;;;;;17.55;64.25;98711.47;2098335;28;20007;-48
2022/05/08 03:41:48;;;;;;;;;;;;;;;17.55;64.00;98715.00;2099410;28;20511;-49
2022/05/08 03:42:48;;;;;;;;;;;;;;;17.54;64.15;98716.00;2096777;28;20434;-49
2022/05/08 03:43:51;;;;;;;;;;;;;;;17.57;64.06;98710.25;2096856;28;19927;-51
2022/05/08 03:44:53;;;;;;;;;;;;;;;17.56;63.95;98713.97;2098441;28;19932;-51
2022/05/08 03:45:55;;;;;;;;;;;;;;;17.55;64.26;98723.06;2098768;28;19924;-47
2022/05/08 03:46:55;;;;;;;;;;;;;;;17.53;64.31;98719.72;2098252;28;20393;-50
2022/05/08 03:47:58;;;;;;;;;;;;;;;17.54;64.17;98716.00;2100023;28;19932;-47
2022/05/08 03:48:58;;;;;;;;;;;;;;;17.54;64.01;98717.88;2098110;28;20412;-49
2022/05/08 03:50:01;;;;;;;;;;;;;;;17.54;64.17;98716.00;2099832;28;19932;-49
2022/05/08 03:51:02;;;;;;;;;;;;;;;17.53;64.16;98725.09;2100074;28;19924;-50
2022/05/08 03:52:05;;;;;;;;;;;;;;;17.54;64.41;98726.75;2099834;28;23333;-47
2022/05/08 03:53:05;;;;;;;;;;;;;;;17.53;64.34;98719.72;2100184;28;19946;-48
2022/05/08 03:54:09;;;;;;;;;;;;;;;17.51;64.36;98727.13;2099865;28;19981;-48
2022/05/08 03:55:11;;;;;;;;;;;;;;;17.52;64.18;98725.28;2097821;28;19924;-53
2022/05/08 03:56:14;;;;;;;;;;;;;;;17.53;64.37;98729.63;2097821;28;20014;-50
2022/05/08 03:57:14;;;;;;;;;;;;;;;17.51;64.28;98727.13;2100494;28;19964;-50
2022/05/08 03:58:17;;;;;;;;;;;;;;;17.52;64.40;98720.72;2096228;28;19931;-49
2022/05/08 03:59:17;;;;;;;;;;;;;;;17.52;64.34;98722.59;2095691;28;19923;-51
2022/05/08 04:00:19;;;;;;;;;;;;;;;17.50;64.26;98725.47;2098607;28;19928;-49
2022/05/08 04:01:21;;;;;;;;;;;;;;;17.49;64.23;98723.81;2098508;28;19928;-49
2022/05/08 04:02:21;;;;;;;;;;;;;;;17.50;64.13;98720.13;2096622;28;19932;-50
2022/05/08 04:03:23;;;;;;;;;;;;;;;17.51;64.19;98719.09;2096445;28;20521;-50
2022/05/08 04:04:23;;;;;;;;;;;;;;;17.51;64.17;98721.78;2097936;28;19973;-50
2022/05/08 04:05:25;;;;;;;;;;;;;;;17.50;64.22;98720.13;2097447;28;20340;-51
2022/05/08 04:06:26;;;;;;;;;;;;;;;17.51;64.10;98719.09;2100510;28;19940;-51
2022/05/08 04:07:27;;;;;;;;;;;;;;;17.49;64.22;98715.75;2099719;28;19924;-48
2022/05/08 04:08:28;;;;;;;;;;;;;;;17.51;64.27;98721.78;2100692;28;19924;-48
2022/05/08 04:09:29;;;;;;;;;;;;;;;17.51;64.15;98720.94;2101026;28;19939;-52
2022/05/08 04:10:32;;;;;;;;;;;;;;;17.50;64.30;98719.28;2096948;28;19959;-49
2022/05/08 04:11:34;;;;;;;;;;;;;;;17.50;64.29;98722.81;2099316;28;20729;-48
2022/05/08 04:12:35;;;;;;;;;;;;;;;17.49;64.40;98713.09;2096996;28;19931;-50
2022/05/08 04:13:37;;;;;;;;;;;;;;;17.49;64.31;98722.97;2097170;28;19984;-49
2022/05/08 04:14:37;;;;;;;;;;;;;;;17.47;64.39;98725.88;2099124;28;20293;-50
2022/05/08 04:17:10;;;;;;;;;;;;;;;17.50;64.30;98725.47;2072168;28;19929;-48
2022/05/08 04:18:10;;;;;;;;;;;;;;;17.50;64.23;98730.84;2071718;28;19944;-52
2022/05/08 04:19:12;;;;;;;;;;;;;;;17.49;64.19;98725.66;2071984;28;20601;-50
2022/05/08 04:20:12;;;;;;;;;;;;;;;17.50;64.36;98736.22;2098246;28;20156;-51
2022/05/08 04:21:14;;;;;;;;;;;;;;;17.49;64.19;98726.50;2098884;28;20789;-49
2022/05/08 04:24:52;;;;;;;;;;;;;;;17.49;64.23;98734.53;2098173;28;19955;-49
2022/05/08 04:25:54;;;;;;;;;;;;;;;17.48;64.17;98732.88;2096383;28;19951;-48
2022/05/08 04:26:57;;;;;;;;;;;;;;;17.49;64.15;98731.84;2086664;28;20238;-48
2022/05/08 04:27:57;;;;;;;;;;;;;;;17.49;64.30;98734.53;2096074;28;20321;-48
2022/05/08 04:28:59;;;;;;;;;;;;;;;17.48;64.24;98730.19;2094233;28;19939;-50
2022/05/08 04:30:00;;;;;;;;;;;;;;;17.49;64.31;98734.53;2098654;28;21196;-48
2022/05/08 04:31:01;;;;;;;;;;;;;;;17.49;64.13;98734.53;2099341;28;19928;-50
2022/05/08 04:32:02;;;;;;;;;;;;;;;17.47;64.08;98736.59;2099216;28;19959;-51
2022/05/08 04:33:04;;;;;;;;;;;;;;;17.49;64.33;98747.94;2093305;28;19934;-50
2022/05/08 04:34:05;;;;;;;;;;;;;;;17.50;64.23;98740.75;2097308;28;20402;-52
2022/05/08 04:35:06;;;;;;;;;;;;;;;17.46;64.32;98745.66;2097771;28;19960;-50
2022/05/08 04:36:08;;;;;;;;;;;;;;;17.47;64.14;98746.47;2095733;28;19939;-49
2022/05/08 04:37:09;;;;;;;;;;;;;;;17.47;64.32;98746.47;2099230;28;19932;-49
2022/05/08 04:38:11;;;;;;;;;;;;;;;17.46;64.12;98753.69;2098077;28;19928;-50
2022/05/08 04:39:13;;;;;;;;;;;;;;;17.47;64.15;98752.69;2098264;28;20593;-52
2022/05/08 04:40:13;;;;;;;;;;;;;;;17.47;64.32;98751.84;2099341;28;20002;-49
2022/05/08 04:41:15;;;;;;;;;;;;;;;17.47;64.12;98752.69;2097248;28;21806;-48
2022/05/08 04:42:17;;;;;;;;;;;;;;;17.49;64.24;98753.31;2098827;28;20477;-51
2022/05/08 04:43:19;;;;;;;;;;;;;;;17.46;64.11;98751.00;2095490;28;19924;-50
2022/05/08 04:44:19;;;;;;;;;;;;;;;17.47;64.16;98751.84;2095017;28;19925;-48
2022/05/08 04:45:21;;;;;;;;;;;;;;;17.43;64.18;98754.91;2094099;28;20328;-48
2022/05/08 04:46:22;;;;;;;;;;;;;;;17.45;64.28;98760.09;2097390;28;19932;-48
2022/05/08 04:47:23;;;;;;;;;;;;;;;17.45;64.18;98753.91;2099393;28;19927;-48
2022/05/08 04:48:24;;;;;;;;;;;;;;;17.42;64.20;98753.25;2097542;28;19924;-49
2022/05/08 04:49:25;;;;;;;;;;;;;;;17.43;64.24;98754.09;2096468;28;19932;-50
2022/05/08 04:50:26;;;;;;;;;;;;;;;17.45;64.06;98756.59;2096988;28;20051;-48
2022/05/08 04:51:27;;;;;;;;;;;;;;;17.45;64.12;98751.22;2098479;28;19932;-48
2022/05/08 04:52:28;;;;;;;;;;;;;;;17.44;64.24;98753.09;2098758;28;19969;-49
2022/05/08 04:53:30;;;;;;;;;;;;;;;17.45;64.22;98752.03;2099463;28;19974;-50
2022/05/08 04:54:31;;;;;;;;;;;;;;;17.44;64.04;98753.09;2097885;28;19982;-48
2022/05/08 04:55:32;;;;;;;;;;;;;;;17.44;64.30;98753.09;2097606;28;19936;-49
2022/05/08 04:56:34;;;;;;;;;;;;;;;17.45;64.13;98759.25;2097006;28;19932;-49
2022/05/08 04:57:36;;;;;;;;;;;;;;;17.45;64.04;98754.72;2096080;28;19928;-48
2022/05/08 04:58:37;;;;;;;;;;;;;;;17.46;64.12;98759.06;2097844;28;19932;-49
2022/05/08 04:59:39;;;;;;;;;;;;;;;17.45;64.17;98754.72;2098531;28;20015;-49
2022/05/08 05:00:41;;;;;;;;;;;;;;;17.45;64.18;98761.94;2098004;28;19981;-49
2022/05/08 05:01:41;;;;;;;;;;;;;;;17.43;64.28;98754.91;2097715;28;20298;-48
2022/05/08 05:02:44;;;;;;;;;;;;;;;17.44;64.15;98758.44;2098617;28;19963;-48
2022/05/08 05:03:45;;;;;;;;;;;;;;;17.43;64.36;98757.59;2098714;28;19935;-49
2022/05/08 05:04:46;;;;;;;;;;;;;;;17.45;64.08;98753.91;2095127;28;20012;-50
2022/05/08 05:05:47;;;;;;;;;;;;;;;17.43;64.24;98759.44;2097696;28;19935;-49
2022/05/08 05:06:49;;;;;;;;;;;;;;;17.41;64.34;98754.28;2096583;28;19976;-50
2022/05/08 05:07:50;;;;;;;;;;;;;;;17.43;64.07;98756.75;2095736;28;20343;-46
2022/05/08 05:08:51;;;;;;;;;;;;;;;17.42;64.24;98758.63;2097087;28;19928;-49
2022/05/08 05:09:52;;;;;;;;;;;;;;;17.43;64.28;98757.59;2099350;28;20386;-47
2022/05/08 05:10:54;;;;;;;;;;;;;;;17.41;64.29;98758.81;2099676;28;19951;-50
2022/05/08 05:11:54;;;;;;;;;;;;;;;17.43;64.15;98757.59;2095032;28;19992;-50
2022/05/08 05:12:57;;;;;;;;;;;;;;;17.42;64.15;98765.84;2097564;28;19985;-50
2022/05/08 05:13:58;;;;;;;;;;;;;;;17.41;64.04;98759.66;2098738;28;20026;-49
2022/05/08 05:15:01;;;;;;;;;;;;;;;17.41;64.12;98758.81;2099036;28;19925;-55
2022/05/08 05:16:01;;;;;;;;;;;;;;;17.43;64.33;98762.13;2100628;28;20325;-53
2022/05/08 05:17:03;;;;;;;;;;;;;;;17.41;64.31;98761.47;2098152;28;19928;-51
2022/05/08 05:18:04;;;;;;;;;;;;;;;17.41;64.47;98769.53;2094742;28;19924;-51
2022/05/08 05:19:06;;;;;;;;;;;;;;;17.40;64.43;98768.69;2100039;28;20010;-54
2022/05/08 05:20:07;;;;;;;;;;;;;;;17.41;64.40;98764.16;2100029;28;20294;-49
2022/05/08 05:21:08;;;;;;;;;;;;;;;17.39;64.44;98763.53;2101020;28;19998;-48
2022/05/08 05:22:09;;;;;;;;;;;;;;;17.38;64.40;98764.56;2099301;28;19928;-53
2022/05/08 05:23:10;;;;;;;;;;;;;;;17.39;64.24;98766.22;2099551;28;19927;-48
2022/05/08 05:24:11;;;;;;;;;;;;;;;17.42;64.50;98768.53;2100708;28;20382;-54
2022/05/08 05:25:12;;;;;;;;;;;;;;;17.39;64.40;98772.41;2095785;28;19931;-50
2022/05/08 05:26:13;;;;;;;;;;;;;;;17.38;64.43;98767.22;2094365;28;19928;-53
2022/05/08 05:27:14;;;;;;;;;;;;;;;17.39;64.28;98766.22;2102222;28;20042;-50
2022/05/08 05:28:17;;;;;;;;;;;;;;;17.40;64.31;98765.19;2101597;28;19924;-52
2022/05/08 05:29:18;;;;;;;;;;;;;;;17.37;64.39;98766.41;2099399;28;20366;-49
2022/05/08 05:30:19;;;;;;;;;;;;;;;17.41;64.32;98764.16;2099096;28;19981;-51
2022/05/08 05:31:20;;;;;;;;;;;;;;;17.43;64.45;98764.81;2099983;28;20580;-51